createdAt,value
2022-08-23T05:26:19.638Z,18.90
2022-08-23T05:28:50.608Z,19.05
2022-08-23T05:31:22.284Z,19.13
2022-08-23T05:33:53.589Z,19.10
2022-08-23T05:36:23.200Z,19.33
2022-08-23T05:38:53.757Z,19.46
2022-08-23T05:41:27.208Z,19.56
2022-08-23T05:44:07.880Z,19.44
2022-08-23T05:46:37.334Z,19.20
2022-08-23T05:49:07.503Z,18.89
2022-08-23T05:51:38.054Z,18.58
2022-08-23T05:54:11.044Z,18.54
2022-08-23T05:56:43.252Z,18.37
2022-08-23T05:59:17.154Z,18.20
2022-08-23T06:01:46.760Z,18.23
2022-08-23T06:04:19.842Z,18.44
2022-08-23T06:06:49.683Z,18.58
2022-08-23T06:09:20.429Z,18.74
2022-08-23T06:11:52.106Z,18.96
2022-08-23T06:14:21.599Z,19.08
2022-08-23T06:16:55.743Z,19.20
2022-08-23T06:19:25.922Z,19.47
2022-08-23T06:21:55.145Z,20.07
2022-08-23T06:24:24.513Z,20.47
2022-08-23T06:26:56.171Z,20.92
2022-08-23T06:29:25.340Z,21.20
2022-08-23T06:31:55.019Z,21.27
2022-08-23T06:34:27.275Z,21.22
2022-08-23T06:36:58.540Z,20.76
2022-08-23T06:39:34.431Z,21.08
2022-08-23T06:42:34.836Z,21.00
2022-08-23T06:44:59.909Z,20.90
2022-08-23T06:47:29.231Z,20.68
2022-08-23T06:49:58.856Z,20.75
2022-08-23T06:52:29.069Z,20.64
2022-08-23T06:54:58.369Z,20.36
2022-08-23T06:57:29.155Z,20.37
2022-08-23T06:59:58.334Z,20.43
2022-08-23T07:02:28.257Z,20.52
2022-08-23T07:04:57.855Z,20.33
2022-08-23T07:07:41.292Z,20.89
2022-08-23T07:10:14.333Z,21.17
2022-08-23T07:12:45.277Z,21.12
2022-08-23T07:15:14.595Z,21.32
2022-08-23T07:17:43.745Z,21.19
2022-08-23T07:20:13.008Z,20.86
2022-08-23T07:22:42.341Z,20.68
2022-08-23T07:25:11.779Z,20.47
2022-08-23T07:27:41.197Z,20.43
2022-08-23T07:30:13.548Z,20.46
2022-08-23T07:32:42.821Z,20.65
2022-08-23T07:35:12.100Z,20.80
2022-08-23T07:37:41.369Z,20.94
2022-08-23T07:40:15.863Z,21.02
2022-08-23T07:42:49.994Z,21.14
2022-08-23T07:45:22.286Z,21.18
2022-08-23T07:47:52.712Z,21.24
2022-08-23T07:50:22.996Z,21.46
2022-08-23T07:52:52.312Z,21.71
2022-08-23T07:55:21.829Z,21.57
2022-08-23T07:57:51.264Z,21.44
2022-08-23T08:00:23.364Z,20.99
2022-08-23T08:02:52.728Z,20.89
2022-08-23T08:05:26.369Z,20.45
2022-08-23T08:07:55.704Z,20.11
2022-08-23T08:10:25.002Z,19.97
2022-08-23T08:12:54.204Z,19.78
2022-08-23T08:15:26.085Z,19.90
2022-08-23T08:17:55.621Z,19.94
2022-08-23T08:20:28.648Z,20.01
2022-08-23T08:22:59.176Z,20.18
2022-08-23T08:25:31.431Z,20.33
2022-08-23T08:28:01.001Z,20.44
2022-08-23T08:30:33.078Z,20.37
2022-08-23T08:33:02.491Z,20.30
2022-08-23T08:35:31.771Z,20.30
2022-08-23T08:38:01.061Z,20.46
2022-08-23T08:40:35.943Z,20.86
2022-08-23T08:43:23.544Z,21.05
2022-08-23T08:46:07.324Z,21.34
2022-08-23T08:48:43.598Z,21.82
2022-08-23T08:51:29.886Z,21.85
2022-08-23T08:54:01.354Z,22.01
2022-08-23T08:56:34.290Z,22.08
2022-08-23T08:59:08.361Z,22.16
2022-08-23T09:01:41.923Z,21.86
2022-08-23T09:04:17.077Z,22.90
2022-08-23T09:06:58.976Z,23.05
2022-08-23T09:09:51.568Z,23.38
2022-08-23T09:12:28.270Z,23.16
2022-08-23T09:15:16.977Z,23.05
2022-08-23T09:17:53.548Z,22.89
2022-08-23T09:20:32.987Z,23.21
2022-08-23T09:23:09.053Z,23.69
2022-08-23T09:25:38.819Z,24.63
2022-08-23T09:28:08.533Z,26.06
2022-08-23T09:30:54.879Z,27.45
2022-08-23T09:33:27.215Z,28.92
2022-08-23T09:36:09.234Z,30.45
2022-08-23T09:38:41.675Z,32.17
2022-08-23T09:41:20.829Z,31.37
2022-08-23T09:43:50.420Z,29.66
2022-08-23T09:46:28.841Z,28.25
2022-08-23T09:49:01.888Z,27.39
2022-08-23T09:51:35.299Z,26.32
2022-08-23T09:54:12.491Z,25.19
2022-08-23T09:56:45.602Z,24.25
2022-08-23T09:59:40.337Z,23.24
2022-08-23T10:02:17.311Z,23.25
2022-08-23T10:04:57.943Z,22.81
2022-08-23T10:07:34.693Z,23.08
2022-08-23T10:10:29.856Z,23.14
2022-08-23T10:13:01.027Z,22.35
2022-08-23T10:15:42.921Z,22.06
2022-08-23T10:18:21.411Z,21.82
2022-08-23T10:21:03.598Z,22.08
2022-08-23T10:23:49.697Z,21.76
2022-08-23T10:26:25.993Z,20.80
2022-08-23T10:29:22.344Z,21.15
2022-08-23T10:31:59.411Z,20.43
2022-08-23T10:34:47.129Z,20.37
2022-08-23T10:37:37.291Z,19.76
2022-08-23T10:40:13.800Z,20.17
2022-08-23T10:42:53.762Z,20.83
2022-08-23T10:45:28.026Z,21.75
2022-08-23T10:48:15.596Z,22.08
2022-08-23T10:50:55.883Z,22.04
2022-08-23T10:53:36.697Z,21.87
2022-08-23T10:56:08.584Z,21.27
2022-08-23T10:58:44.171Z,21.15
2022-08-23T11:01:21.948Z,20.97
2022-08-23T11:04:02.069Z,20.92
2022-08-23T11:06:46.278Z,20.54
2022-08-23T11:09:50.217Z,20.97
2022-08-23T11:12:29.693Z,21.44
2022-08-23T11:15:15.351Z,21.34
2022-08-23T11:17:58.195Z,21.45
2022-08-23T11:21:04.096Z,21.43
2022-08-23T11:23:45.723Z,21.09
2022-08-23T11:27:07.121Z,20.97
2022-08-23T11:29:43.623Z,20.45
2022-08-23T11:32:47.278Z,20.68
2022-08-23T11:35:43.028Z,20.74
2022-08-23T11:38:14.730Z,20.18
2022-08-23T11:41:00.864Z,20.23
2022-08-23T11:43:42.512Z,20.38
2022-08-23T11:46:32.424Z,20.92
2022-08-23T11:49:31.260Z,21.44
2022-08-23T11:52:13.858Z,22.09
2022-08-23T11:55:09.025Z,22.24
2022-08-23T11:58:07.141Z,22.06
2022-08-23T12:01:00.090Z,22.20
2022-08-23T12:03:34.623Z,22.73
2022-08-23T12:06:13.322Z,23.56
2022-08-23T12:08:54.401Z,24.66
2022-08-23T12:11:25.715Z,24.66
2022-08-23T12:14:01.639Z,24.64
2022-08-23T12:16:41.925Z,23.51
2022-08-23T12:19:27.042Z,22.93
2022-08-23T12:21:58.394Z,21.86
2022-08-23T12:24:34.627Z,21.47
2022-08-23T12:27:32.910Z,20.10
2022-08-23T12:30:07.536Z,19.89
2022-08-23T12:32:58.783Z,21.19
2022-08-23T12:35:37.180Z,21.63
2022-08-23T12:38:12.630Z,21.80
2022-08-23T12:40:58.253Z,22.00
2022-08-23T12:43:33.478Z,21.96
2022-08-23T12:46:14.672Z,21.96
2022-08-23T12:48:49.315Z,21.69
2022-08-23T12:51:32.465Z,21.07
2022-08-23T12:54:15.652Z,19.81
2022-08-23T12:56:48.522Z,19.62
2022-08-23T12:59:35.529Z,19.07
2022-08-23T13:02:09.977Z,18.57
2022-08-23T13:04:44.830Z,18.33
2022-08-23T13:07:17.743Z,18.05
2022-08-23T13:09:53.799Z,17.67
2022-08-23T13:12:25.400Z,17.60
2022-08-23T13:15:01.886Z,17.40
2022-08-23T13:17:37.296Z,16.68
2022-08-23T13:20:22.063Z,17.06
2022-08-23T13:23:01.302Z,16.64
2022-08-23T13:25:33.898Z,16.75
2022-08-23T13:28:05.758Z,16.74
2022-08-23T13:30:36.846Z,16.61
2022-08-23T13:33:26.292Z,16.45
2022-08-23T13:36:13.353Z,16.19
2022-08-23T13:38:44.340Z,16.16
2022-08-23T13:41:28.891Z,16.01
2022-08-23T13:43:58.323Z,15.99
2022-08-23T13:46:30.319Z,15.91
2022-08-23T13:49:02.551Z,15.36
2022-08-23T13:51:38.844Z,15.60
2022-08-23T13:54:10.377Z,14.80
2022-08-23T13:56:44.847Z,15.50
2022-08-23T13:59:31.100Z,14.87
2022-08-23T14:02:03.444Z,15.23
2022-08-23T14:04:32.759Z,15.29
2022-08-23T14:07:03.492Z,15.12
2022-08-23T14:09:34.060Z,15.16
2022-08-23T14:12:06.718Z,15.06
2022-08-23T14:14:39.382Z,15.00
2022-08-23T14:17:10.710Z,14.83
2022-08-23T14:22:36.772Z,14.66
2022-08-23T14:25:06.876Z,14.75
2022-08-23T14:27:36.369Z,14.71
2022-08-23T14:30:06.490Z,14.65
2022-08-23T14:32:35.911Z,14.46
2022-08-23T14:35:15.019Z,14.39
2022-08-23T14:38:03.396Z,14.42
2022-08-23T14:40:36.197Z,14.39
2022-08-23T14:43:06.588Z,14.28
2022-08-23T14:45:36.050Z,14.21
2022-08-23T14:48:05.839Z,14.13
2022-08-23T14:50:39.015Z,13.94
2022-08-23T14:53:10.523Z,13.94
2022-08-23T14:55:39.877Z,13.32
2022-08-23T14:58:09.153Z,13.79
2022-08-23T15:00:39.401Z,13.64
2022-08-23T15:03:20.488Z,13.70
2022-08-23T15:05:49.725Z,13.64
2022-08-23T15:08:20.819Z,13.56
2022-08-23T15:13:14.291Z,13.48
2022-08-23T15:13:54.926Z,13.25
2022-08-23T15:16:25.495Z,13.40
2022-08-23T15:18:55.708Z,13.25
2022-08-23T15:21:25.253Z,13.25
2022-08-23T15:23:56.066Z,13.12
2022-08-23T15:26:27.498Z,13.04
2022-08-23T15:28:56.631Z,12.95
2022-08-23T15:31:26.794Z,12.90
2022-08-23T15:33:56.065Z,12.75
2022-08-23T15:36:25.330Z,12.63
2022-08-23T15:38:56.602Z,12.62
2022-08-23T15:41:26.089Z,12.50
2022-08-23T15:43:55.622Z,11.94
2022-08-23T15:46:26.329Z,12.24
2022-08-23T15:48:59.031Z,12.29
2022-08-23T15:51:28.476Z,12.26
2022-08-23T15:53:59.824Z,12.03
2022-08-23T15:56:38.358Z,11.99
2022-08-23T15:59:10.316Z,12.00
2022-08-23T16:01:39.773Z,11.76
2022-08-23T16:04:14.861Z,11.90
2022-08-23T16:06:45.627Z,11.39
2022-08-23T16:10:22.067Z,11.89
2022-08-23T16:14:32.979Z,11.83
2022-08-23T16:21:10.660Z,11.76
2022-08-23T16:23:40.586Z,11.76
2022-08-23T16:26:12.422Z,11.38
2022-08-23T16:28:49.506Z,11.51
2022-08-23T16:31:19.542Z,11.20
2022-08-23T16:33:49.822Z,11.38
2022-08-23T16:36:21.201Z,11.93
2022-08-23T16:38:51.505Z,12.00
2022-08-23T16:41:20.633Z,11.26
2022-08-23T16:43:49.997Z,11.70
2022-08-23T16:46:19.941Z,12.12
2022-08-23T16:48:49.181Z,11.51
2022-08-23T16:51:20.132Z,12.02
2022-08-23T16:54:01.528Z,12.19
2022-08-23T16:56:33.961Z,12.23
2022-08-23T16:59:03.618Z,11.90
2022-08-23T17:01:44.292Z,12.25
2022-08-23T17:04:13.529Z,11.83
2022-08-23T17:06:44.757Z,12.36
2022-08-23T17:09:14.497Z,11.96
2022-08-23T17:11:45.819Z,12.30
2022-08-23T17:14:15.155Z,11.90
2022-08-23T17:16:45.764Z,12.30
2022-08-23T17:19:17.416Z,12.48
2022-08-23T17:21:48.130Z,12.38
2022-08-23T17:24:17.380Z,12.38
2022-08-23T17:26:46.633Z,12.44
2022-08-23T17:29:16.884Z,11.92
2022-08-23T17:31:49.601Z,11.98
2022-08-23T17:34:19.402Z,12.42
2022-08-23T17:36:53.253Z,11.94
2022-08-23T17:39:24.929Z,11.98
2022-08-23T17:41:54.501Z,12.36
2022-08-23T17:44:23.885Z,12.32
2022-08-23T17:46:53.471Z,11.88
2022-08-23T17:49:22.714Z,12.24
2022-08-23T17:51:53.451Z,12.19
2022-08-23T17:54:22.607Z,12.14
2022-08-23T17:56:53.215Z,11.71
2022-08-23T17:59:23.074Z,11.90
2022-08-23T18:01:52.603Z,11.89
2022-08-23T18:04:21.901Z,11.24
2022-08-23T18:06:52.946Z,11.70
2022-08-23T18:09:22.297Z,11.91
2022-08-23T18:11:51.955Z,11.99
2022-08-23T18:14:21.137Z,12.01
2022-08-23T18:16:50.807Z,11.41
2022-08-23T18:19:20.049Z,11.92
2022-08-23T18:21:50.055Z,11.90
2022-08-23T18:24:21.595Z,12.14
2022-08-23T18:27:08.218Z,12.15
2022-08-23T18:29:39.455Z,12.16
2022-08-23T18:32:10.661Z,11.79
2022-08-23T18:34:40.624Z,12.17
2022-08-23T18:37:09.836Z,11.55
2022-08-23T18:39:40.474Z,12.17
2022-08-23T18:42:10.024Z,11.76
2022-08-23T18:44:39.219Z,12.17
2022-08-23T18:47:09.317Z,12.16
2022-08-23T18:49:39.143Z,12.04
2022-08-23T18:52:08.642Z,11.76
2022-08-23T18:54:40.225Z,11.66
2022-08-23T18:57:15.900Z,11.97
2022-08-23T18:59:45.571Z,12.00
2022-08-23T19:02:14.892Z,12.16
2022-08-23T19:04:44.133Z,12.09
2022-08-23T19:07:13.354Z,12.16
2022-08-23T19:09:44.105Z,12.17
2022-08-23T19:12:13.369Z,11.63
2022-08-23T19:14:42.541Z,12.11
2022-08-23T19:17:11.803Z,11.77
2022-08-23T19:19:41.029Z,11.74
2022-08-23T19:22:10.206Z,12.21
2022-08-23T19:24:39.333Z,12.15
2022-08-23T19:27:10.514Z,11.70
2022-08-23T19:29:39.702Z,11.49
2022-08-23T19:32:09.099Z,12.11
2022-08-23T19:34:38.301Z,12.18
2022-08-23T19:37:09.083Z,12.10
2022-08-23T19:39:49.894Z,11.67
2022-08-23T19:42:20.939Z,11.74
2022-08-23T19:44:50.134Z,11.78
2022-08-23T19:47:21.144Z,11.54
2022-08-23T19:49:51.898Z,11.92
2022-08-23T19:52:21.096Z,12.10
2022-08-23T19:54:50.715Z,11.98
2022-08-23T19:57:21.459Z,12.10
2022-08-23T19:59:50.710Z,11.66
2022-08-23T20:02:19.963Z,11.72
2022-08-23T20:04:49.178Z,11.70
2022-08-23T20:07:18.366Z,11.85
2022-08-23T20:09:47.550Z,11.83
2022-08-23T20:12:17.770Z,11.46
2022-08-23T20:14:50.001Z,11.57
2022-08-23T20:17:19.121Z,12.05
2022-08-23T20:19:48.727Z,12.21
2022-08-23T20:22:35.526Z,11.47
2022-08-23T20:25:05.947Z,12.03
2022-08-23T20:27:37.411Z,11.85
2022-08-23T20:30:10.191Z,11.54
2022-08-23T20:32:39.782Z,12.15
2022-08-23T20:35:12.329Z,11.91
2022-08-23T20:37:41.643Z,11.54
2022-08-23T20:40:12.248Z,11.44
2022-08-23T20:42:41.549Z,11.36
2022-08-23T20:45:13.035Z,11.65
2022-08-23T20:47:42.254Z,11.08
2022-08-23T20:50:11.578Z,11.50
2022-08-23T20:52:40.776Z,11.05
2022-08-23T20:55:11.051Z,11.45
2022-08-23T20:57:40.378Z,10.92
2022-08-23T21:00:13.179Z,11.02
2022-08-23T21:02:42.373Z,11.44
2022-08-23T21:05:11.827Z,11.42
2022-08-23T21:07:41.101Z,11.02
2022-08-23T21:10:11.793Z,10.65
2022-08-23T21:12:41.032Z,10.81
2022-08-23T21:15:13.036Z,10.64
2022-08-23T21:17:42.261Z,10.34
2022-08-23T21:20:12.137Z,10.87
2022-08-23T21:22:41.322Z,10.34
2022-08-23T21:25:11.210Z,10.07
2022-08-23T21:27:40.495Z,9.83
2022-08-23T21:30:12.919Z,10.54
2022-08-23T21:32:42.088Z,10.21
2022-08-23T21:35:14.201Z,10.31
2022-08-23T21:37:43.366Z,9.81
2022-08-23T21:40:14.000Z,9.61
2022-08-23T21:42:43.255Z,9.72
2022-08-23T21:45:14.009Z,10.18
2022-08-23T21:47:43.214Z,10.14
2022-08-23T21:50:12.821Z,10.10
2022-08-23T21:52:42.382Z,10.06
2022-08-23T21:55:12.405Z,10.02
2022-08-23T21:57:42.934Z,9.85
2022-08-23T22:00:18.014Z,9.39
2022-08-23T22:02:47.976Z,9.79
2022-08-23T22:05:17.325Z,9.79
2022-08-23T22:07:47.582Z,9.42
2022-08-23T22:10:16.993Z,9.34
2022-08-23T22:12:47.674Z,9.38
2022-08-23T22:15:19.111Z,9.70
2022-08-23T22:17:48.294Z,9.16
2022-08-23T22:20:17.681Z,9.15
2022-08-23T22:22:48.010Z,9.51
2022-08-23T22:25:17.758Z,9.56
2022-08-23T22:27:47.978Z,8.99
2022-08-23T22:30:19.554Z,9.36
2022-08-23T22:32:48.732Z,9.15
2022-08-23T22:35:18.636Z,8.90
2022-08-23T22:38:10.278Z,8.84
2022-08-23T22:40:37.204Z,8.51
2022-08-23T22:43:06.383Z,8.88
2022-08-23T22:45:37.079Z,9.31
2022-08-23T22:48:06.578Z,8.77
2022-08-23T22:50:35.778Z,9.16
2022-08-23T22:53:04.971Z,9.05
2022-08-23T22:55:34.130Z,8.67
2022-08-23T22:58:03.595Z,8.76
2022-08-23T23:00:32.887Z,8.74
2022-08-23T23:03:03.825Z,8.73
2022-08-23T23:05:35.431Z,8.64
2022-08-23T23:08:22.006Z,8.75
2022-08-23T23:10:51.192Z,9.10
2022-08-23T23:13:20.384Z,9.09
2022-08-23T23:15:50.581Z,9.01
2022-08-23T23:18:21.527Z,8.99
2022-08-23T23:20:50.626Z,9.18
2022-08-23T23:23:22.335Z,8.82
2022-08-23T23:25:52.446Z,9.05
2022-08-23T23:28:22.118Z,8.94
2022-08-23T23:30:53.319Z,9.47
2022-08-23T23:33:24.592Z,9.46
2022-08-23T23:35:53.690Z,9.47
2022-08-23T23:38:22.872Z,9.31
2022-08-23T23:40:52.440Z,9.46
2022-08-23T23:43:21.658Z,9.44
2022-08-23T23:45:50.926Z,9.43
2022-08-23T23:48:20.386Z,9.42
2022-08-23T23:50:51.118Z,9.44
2022-08-23T23:53:20.699Z,9.31
2022-08-23T23:55:50.017Z,8.87
2022-08-23T23:58:19.269Z,9.12
